sensor_id;sensor_type;location;lat;lon;timestamp;P1;durP1;ratioP1;P2;durP2;ratioP2
74551;SDS011;63025;55.472;38.432;2024-03-22T00:01:45;35.58;;;16.95;;
74551;SDS011;63025;55.472;38.432;2024-03-22T00:04:12;35.85;;;17.40;;
74551;SDS011;63025;55.472;38.432;2024-03-22T00:06:39;34.53;;;15.60;;
74551;SDS011;63025;55.472;38.432;2024-03-22T00:09:07;33.95;;;16.83;;
74551;SDS011;63025;55.472;38.432;2024-03-22T00:11:32;29.63;;;14.60;;
74551;SDS011;63025;55.472;38.432;2024-03-22T00:13:58;35.83;;;16.40;;
74551;SDS011;63025;55.472;38.432;2024-03-22T00:16:24;33.42;;;15.65;;
74551;SDS011;63025;55.472;38.432;2024-03-22T00:18:50;33.78;;;16.35;;
74551;SDS011;63025;55.472;38.432;2024-03-22T00:21:16;33.67;;;16.02;;
74551;SDS011;63025;55.472;38.432;2024-03-22T00:23:43;35.45;;;15.07;;
74551;SDS011;63025;55.472;38.432;2024-03-22T00:26:09;31.38;;;14.40;;
74551;SDS011;63025;55.472;38.432;2024-03-22T00:28:35;31.33;;;14.52;;
74551;SDS011;63025;55.472;38.432;2024-03-22T00:31:00;32.00;;;14.68;;
74551;SDS011;63025;55.472;38.432;2024-03-22T00:33:26;26.98;;;15.48;;
74551;SDS011;63025;55.472;38.432;2024-03-22T00:35:52;29.00;;;14.55;;
74551;SDS011;63025;55.472;38.432;2024-03-22T00:38:18;27.02;;;14.10;;
74551;SDS011;63025;55.472;38.432;2024-03-22T00:40:43;32.70;;;13.82;;
74551;SDS011;63025;55.472;38.432;2024-03-22T00:43:09;29.92;;;13.38;;
74551;SDS011;63025;55.472;38.432;2024-03-22T00:45:35;29.67;;;13.13;;
74551;SDS011;63025;55.472;38.432;2024-03-22T00:48:01;28.92;;;13.27;;
74551;SDS011;63025;55.472;38.432;2024-03-22T00:50:27;25.75;;;13.65;;
74551;SDS011;63025;55.472;38.432;2024-03-22T00:52:53;28.88;;;14.25;;
74551;SDS011;63025;55.472;38.432;2024-03-22T00:55:22;29.80;;;14.43;;
74551;SDS011;63025;55.472;38.432;2024-03-22T00:57:48;34.95;;;15.50;;
74551;SDS011;63025;55.472;38.432;2024-03-22T01:00:14;36.22;;;16.83;;
74551;SDS011;63025;55.472;38.432;2024-03-22T01:02:41;36.83;;;16.63;;
74551;SDS011;63025;55.472;38.432;2024-03-22T01:05:07;37.40;;;17.00;;
74551;SDS011;63025;55.472;38.432;2024-03-22T01:07:33;33.88;;;16.17;;
74551;SDS011;63025;55.472;38.432;2024-03-22T01:09:58;35.55;;;16.58;;
74551;SDS011;63025;55.472;38.432;2024-03-22T01:12:25;34.08;;;17.02;;
74551;SDS011;63025;55.472;38.432;2024-03-22T01:14:51;39.20;;;16.60;;
74551;SDS011;63025;55.472;38.432;2024-03-22T01:17:17;37.60;;;17.55;;
74551;SDS011;63025;55.472;38.432;2024-03-22T01:19:42;42.63;;;18.98;;
74551;SDS011;63025;55.472;38.432;2024-03-22T01:22:08;36.88;;;17.65;;
74551;SDS011;63025;55.472;38.432;2024-03-22T01:24:34;37.83;;;17.15;;
74551;SDS011;63025;55.472;38.432;2024-03-22T01:27:00;41.55;;;18.10;;
74551;SDS011;63025;55.472;38.432;2024-03-22T01:29:26;37.80;;;19.27;;
74551;SDS011;63025;55.472;38.432;2024-03-22T01:31:55;36.70;;;17.38;;
74551;SDS011;63025;55.472;38.432;2024-03-22T01:34:21;33.40;;;17.33;;
74551;SDS011;63025;55.472;38.432;2024-03-22T01:36:47;41.00;;;18.60;;
74551;SDS011;63025;55.472;38.432;2024-03-22T01:39:13;41.03;;;19.70;;
74551;SDS011;63025;55.472;38.432;2024-03-22T01:41:39;40.17;;;19.23;;
74551;SDS011;63025;55.472;38.432;2024-03-22T01:44:05;46.17;;;20.67;;
74551;SDS011;63025;55.472;38.432;2024-03-22T01:46:31;38.28;;;18.95;;
74551;SDS011;63025;55.472;38.432;2024-03-22T01:48:57;41.53;;;18.70;;
74551;SDS011;63025;55.472;38.432;2024-03-22T01:51:23;39.55;;;19.25;;
74551;SDS011;63025;55.472;38.432;2024-03-22T01:53:49;38.65;;;19.38;;
74551;SDS011;63025;55.472;38.432;2024-03-22T01:56:16;40.45;;;19.15;;
74551;SDS011;63025;55.472;38.432;2024-03-22T01:58:42;47.78;;;22.13;;
74551;SDS011;63025;55.472;38.432;2024-03-22T02:01:08;51.22;;;23.95;;
74551;SDS011;63025;55.472;38.432;2024-03-22T02:03:34;44.35;;;22.90;;
74551;SDS011;63025;55.472;38.432;2024-03-22T02:06:00;45.53;;;22.42;;
74551;SDS011;63025;55.472;38.432;2024-03-22T02:08:25;50.50;;;22.92;;
74551;SDS011;63025;55.472;38.432;2024-03-22T02:10:51;49.72;;;22.65;;
74551;SDS011;63025;55.472;38.432;2024-03-22T02:13:18;51.47;;;23.08;;
74551;SDS011;63025;55.472;38.432;2024-03-22T02:15:44;41.38;;;18.63;;
74551;SDS011;63025;55.472;38.432;2024-03-22T02:18:30;45.67;;;20.42;;
74551;SDS011;63025;55.472;38.432;2024-03-22T02:20:58;53.60;;;22.15;;
74551;SDS011;63025;55.472;38.432;2024-03-22T02:23:34;44.60;;;21.05;;
74551;SDS011;63025;55.472;38.432;2024-03-22T02:26:01;42.40;;;19.50;;
74551;SDS011;63025;55.472;38.432;2024-03-22T02:28:28;38.78;;;18.63;;
74551;SDS011;63025;55.472;38.432;2024-03-22T02:30:54;42.67;;;19.88;;
74551;SDS011;63025;55.472;38.432;2024-03-22T02:33:20;43.38;;;19.80;;
74551;SDS011;63025;55.472;38.432;2024-03-22T02:35:46;37.40;;;19.55;;
74551;SDS011;63025;55.472;38.432;2024-03-22T02:38:13;45.10;;;20.85;;
74551;SDS011;63025;55.472;38.432;2024-03-22T02:40:39;43.28;;;21.63;;
74551;SDS011;63025;55.472;38.432;2024-03-22T02:43:04;48.70;;;22.33;;
74551;SDS011;63025;55.472;38.432;2024-03-22T02:45:31;49.55;;;24.15;;
74551;SDS011;63025;55.472;38.432;2024-03-22T02:47:57;45.95;;;21.83;;
74551;SDS011;63025;55.472;38.432;2024-03-22T02:50:23;43.00;;;21.08;;
74551;SDS011;63025;55.472;38.432;2024-03-22T02:52:49;44.85;;;22.77;;
74551;SDS011;63025;55.472;38.432;2024-03-22T02:55:15;51.17;;;21.38;;
74551;SDS011;63025;55.472;38.432;2024-03-22T02:57:41;52.67;;;24.40;;
74551;SDS011;63025;55.472;38.432;2024-03-22T03:00:07;49.85;;;24.33;;
74551;SDS011;63025;55.472;38.432;2024-03-22T03:02:33;54.78;;;22.70;;
74551;SDS011;63025;55.472;38.432;2024-03-22T03:05:00;51.22;;;24.27;;
74551;SDS011;63025;55.472;38.432;2024-03-22T03:07:25;51.58;;;22.83;;
74551;SDS011;63025;55.472;38.432;2024-03-22T03:09:53;51.28;;;24.55;;
74551;SDS011;63025;55.472;38.432;2024-03-22T03:12:19;54.53;;;24.65;;
74551;SDS011;63025;55.472;38.432;2024-03-22T03:14:45;53.72;;;24.83;;
74551;SDS011;63025;55.472;38.432;2024-03-22T03:17:10;52.63;;;24.15;;
74551;SDS011;63025;55.472;38.432;2024-03-22T03:19:36;53.55;;;26.50;;
74551;SDS011;63025;55.472;38.432;2024-03-22T03:22:03;50.42;;;25.58;;
74551;SDS011;63025;55.472;38.432;2024-03-22T03:24:29;53.83;;;24.75;;
74551;SDS011;63025;55.472;38.432;2024-03-22T03:26:54;50.30;;;25.55;;
74551;SDS011;63025;55.472;38.432;2024-03-22T03:29:20;50.50;;;23.55;;
74551;SDS011;63025;55.472;38.432;2024-03-22T03:31:46;49.92;;;21.38;;
74551;SDS011;63025;55.472;38.432;2024-03-22T03:34:12;57.63;;;25.60;;
74551;SDS011;63025;55.472;38.432;2024-03-22T03:36:38;58.42;;;25.30;;
74551;SDS011;63025;55.472;38.432;2024-03-22T03:39:03;52.97;;;24.88;;
74551;SDS011;63025;55.472;38.432;2024-03-22T03:41:29;56.35;;;23.88;;
74551;SDS011;63025;55.472;38.432;2024-03-22T03:43:55;54.85;;;25.83;;
74551;SDS011;63025;55.472;38.432;2024-03-22T03:46:21;59.65;;;24.65;;
74551;SDS011;63025;55.472;38.432;2024-03-22T03:48:47;53.40;;;24.40;;
74551;SDS011;63025;55.472;38.432;2024-03-22T03:51:13;64.25;;;27.13;;
74551;SDS011;63025;55.472;38.432;2024-03-22T03:53:39;47.35;;;23.60;;
74551;SDS011;63025;55.472;38.432;2024-03-22T03:56:04;55.45;;;24.95;;
74551;SDS011;63025;55.472;38.432;2024-03-22T03:58:30;65.45;;;25.63;;
74551;SDS011;63025;55.472;38.432;2024-03-22T04:00:56;50.38;;;24.35;;
74551;SDS011;63025;55.472;38.432;2024-03-22T04:03:22;51.50;;;24.10;;
74551;SDS011;63025;55.472;38.432;2024-03-22T04:05:57;51.78;;;23.60;;
74551;SDS011;63025;55.472;38.432;2024-03-22T04:08:24;51.80;;;24.38;;
74551;SDS011;63025;55.472;38.432;2024-03-22T04:10:54;51.33;;;24.58;;
74551;SDS011;63025;55.472;38.432;2024-03-22T04:13:24;53.25;;;25.13;;
74551;SDS011;63025;55.472;38.432;2024-03-22T04:15:51;53.15;;;23.45;;
74551;SDS011;63025;55.472;38.432;2024-03-22T04:18:17;48.55;;;23.70;;
74551;SDS011;63025;55.472;38.432;2024-03-22T04:20:52;56.83;;;24.17;;
74551;SDS011;63025;55.472;38.432;2024-03-22T04:23:20;47.03;;;22.75;;
74551;SDS011;63025;55.472;38.432;2024-03-22T04:25:56;58.90;;;25.85;;
74551;SDS011;63025;55.472;38.432;2024-03-22T04:28:22;48.78;;;23.38;;
74551;SDS011;63025;55.472;38.432;2024-03-22T04:31:02;54.50;;;26.48;;
74551;SDS011;63025;55.472;38.432;2024-03-22T04:33:30;52.38;;;26.20;;
74551;SDS011;63025;55.472;38.432;2024-03-22T04:35:57;55.63;;;26.58;;
74551;SDS011;63025;55.472;38.432;2024-03-22T04:38:24;54.70;;;25.50;;
74551;SDS011;63025;55.472;38.432;2024-03-22T04:40:50;51.25;;;25.38;;
74551;SDS011;63025;55.472;38.432;2024-03-22T04:43:17;45.00;;;23.75;;
74551;SDS011;63025;55.472;38.432;2024-03-22T04:45:44;55.05;;;24.98;;
74551;SDS011;63025;55.472;38.432;2024-03-22T04:48:14;43.42;;;22.90;;
74551;SDS011;63025;55.472;38.432;2024-03-22T04:50:42;48.53;;;22.90;;
74551;SDS011;63025;55.472;38.432;2024-03-22T04:53:08;47.00;;;22.70;;
74551;SDS011;63025;55.472;38.432;2024-03-22T04:55:34;43.67;;;22.05;;
74551;SDS011;63025;55.472;38.432;2024-03-22T04:57:59;42.38;;;21.92;;
74551;SDS011;63025;55.472;38.432;2024-03-22T05:00:26;40.33;;;21.83;;
74551;SDS011;63025;55.472;38.432;2024-03-22T05:02:52;38.70;;;19.35;;
74551;SDS011;63025;55.472;38.432;2024-03-22T05:05:18;34.88;;;18.95;;
74551;SDS011;63025;55.472;38.432;2024-03-22T05:07:44;37.97;;;19.52;;
74551;SDS011;63025;55.472;38.432;2024-03-22T05:10:11;41.80;;;21.38;;
74551;SDS011;63025;55.472;38.432;2024-03-22T05:12:37;40.67;;;20.45;;
74551;SDS011;63025;55.472;38.432;2024-03-22T05:15:04;37.70;;;19.73;;
74551;SDS011;63025;55.472;38.432;2024-03-22T05:17:31;33.20;;;19.30;;
74551;SDS011;63025;55.472;38.432;2024-03-22T05:19:58;36.00;;;20.40;;
74551;SDS011;63025;55.472;38.432;2024-03-22T05:22:24;39.80;;;20.25;;
74551;SDS011;63025;55.472;38.432;2024-03-22T05:24:50;36.97;;;21.25;;
74551;SDS011;63025;55.472;38.432;2024-03-22T05:27:19;36.10;;;19.08;;
74551;SDS011;63025;55.472;38.432;2024-03-22T05:29:45;38.42;;;19.65;;
74551;SDS011;63025;55.472;38.432;2024-03-22T05:32:11;40.33;;;19.38;;
74551;SDS011;63025;55.472;38.432;2024-03-22T05:34:37;38.88;;;19.77;;
74551;SDS011;63025;55.472;38.432;2024-03-22T05:37:02;35.38;;;19.52;;
74551;SDS011;63025;55.472;38.432;2024-03-22T05:39:29;36.63;;;19.08;;
74551;SDS011;63025;55.472;38.432;2024-03-22T05:41:55;32.95;;;18.67;;
74551;SDS011;63025;55.472;38.432;2024-03-22T05:44:21;33.65;;;18.83;;
74551;SDS011;63025;55.472;38.432;2024-03-22T05:46:47;36.72;;;19.52;;
74551;SDS011;63025;55.472;38.432;2024-03-22T05:49:13;34.30;;;19.17;;
74551;SDS011;63025;55.472;38.432;2024-03-22T05:51:39;36.30;;;18.88;;
74551;SDS011;63025;55.472;38.432;2024-03-22T05:54:05;36.60;;;18.23;;
74551;SDS011;63025;55.472;38.432;2024-03-22T05:56:32;34.55;;;18.83;;
74551;SDS011;63025;55.472;38.432;2024-03-22T05:58:57;33.13;;;18.92;;
74551;SDS011;63025;55.472;38.432;2024-03-22T06:01:23;35.58;;;19.02;;
74551;SDS011;63025;55.472;38.432;2024-03-22T06:03:49;36.38;;;19.08;;
74551;SDS011;63025;55.472;38.432;2024-03-22T06:06:15;34.78;;;19.38;;
74551;SDS011;63025;55.472;38.432;2024-03-22T06:08:41;37.72;;;19.40;;
74551;SDS011;63025;55.472;38.432;2024-03-22T06:11:09;40.67;;;18.90;;
74551;SDS011;63025;55.472;38.432;2024-03-22T06:13:35;38.05;;;19.13;;
74551;SDS011;63025;55.472;38.432;2024-03-22T06:16:02;35.42;;;18.27;;
74551;SDS011;63025;55.472;38.432;2024-03-22T06:18:29;34.60;;;18.88;;
74551;SDS011;63025;55.472;38.432;2024-03-22T06:20:55;37.03;;;18.00;;
74551;SDS011;63025;55.472;38.432;2024-03-22T06:23:21;35.92;;;19.38;;
74551;SDS011;63025;55.472;38.432;2024-03-22T06:25:53;35.38;;;19.33;;
74551;SDS011;63025;55.472;38.432;2024-03-22T06:28:22;34.20;;;18.25;;
74551;SDS011;63025;55.472;38.432;2024-03-22T06:30:48;36.42;;;18.95;;
74551;SDS011;63025;55.472;38.432;2024-03-22T06:33:14;33.88;;;18.38;;
74551;SDS011;63025;55.472;38.432;2024-03-22T06:35:41;31.77;;;19.77;;
74551;SDS011;63025;55.472;38.432;2024-03-22T06:38:07;38.00;;;19.73;;
74551;SDS011;63025;55.472;38.432;2024-03-22T06:40:33;33.63;;;18.02;;
74551;SDS011;63025;55.472;38.432;2024-03-22T06:42:59;37.10;;;18.05;;
74551;SDS011;63025;55.472;38.432;2024-03-22T06:45:25;33.70;;;18.85;;
74551;SDS011;63025;55.472;38.432;2024-03-22T06:47:51;31.45;;;17.42;;
74551;SDS011;63025;55.472;38.432;2024-03-22T06:50:17;37.35;;;18.38;;
74551;SDS011;63025;55.472;38.432;2024-03-22T06:52:43;40.13;;;20.17;;
74551;SDS011;63025;55.472;38.432;2024-03-22T06:55:09;35.45;;;18.60;;
74551;SDS011;63025;55.472;38.432;2024-03-22T06:57:37;34.47;;;18.90;;
74551;SDS011;63025;55.472;38.432;2024-03-22T07:00:03;32.78;;;19.02;;
74551;SDS011;63025;55.472;38.432;2024-03-22T07:02:30;32.67;;;18.77;;
74551;SDS011;63025;55.472;38.432;2024-03-22T07:04:56;30.80;;;17.88;;
74551;SDS011;63025;55.472;38.432;2024-03-22T07:07:22;36.03;;;18.42;;
74551;SDS011;63025;55.472;38.432;2024-03-22T07:09:47;33.42;;;18.45;;
74551;SDS011;63025;55.472;38.432;2024-03-22T07:12:13;34.50;;;19.48;;
74551;SDS011;63025;55.472;38.432;2024-03-22T07:14:39;32.45;;;18.42;;
74551;SDS011;63025;55.472;38.432;2024-03-22T07:17:05;35.67;;;17.10;;
74551;SDS011;63025;55.472;38.432;2024-03-22T07:19:31;31.95;;;16.67;;
74551;SDS011;63025;55.472;38.432;2024-03-22T07:21:58;35.20;;;17.65;;
74551;SDS011;63025;55.472;38.432;2024-03-22T07:24:25;31.05;;;17.80;;
74551;SDS011;63025;55.472;38.432;2024-03-22T07:26:51;31.10;;;16.67;;
74551;SDS011;63025;55.472;38.432;2024-03-22T07:29:17;31.15;;;16.95;;
74551;SDS011;63025;55.472;38.432;2024-03-22T07:31:43;30.65;;;16.70;;
74551;SDS011;63025;55.472;38.432;2024-03-22T07:34:09;31.13;;;16.75;;
74551;SDS011;63025;55.472;38.432;2024-03-22T07:36:38;28.05;;;16.75;;
74551;SDS011;63025;55.472;38.432;2024-03-22T07:39:04;33.83;;;17.73;;
74551;SDS011;63025;55.472;38.432;2024-03-22T07:41:34;28.50;;;16.27;;
74551;SDS011;63025;55.472;38.432;2024-03-22T07:44:00;29.92;;;17.20;;
74551;SDS011;63025;55.472;38.432;2024-03-22T07:46:26;29.60;;;16.05;;
74551;SDS011;63025;55.472;38.432;2024-03-22T07:48:52;26.55;;;15.80;;
74551;SDS011;63025;55.472;38.432;2024-03-22T07:51:19;26.58;;;17.25;;
74551;SDS011;63025;55.472;38.432;2024-03-22T07:53:46;28.95;;;16.63;;
74551;SDS011;63025;55.472;38.432;2024-03-22T07:56:12;26.65;;;16.08;;
74551;SDS011;63025;55.472;38.432;2024-03-22T07:58:38;25.35;;;15.80;;
74551;SDS011;63025;55.472;38.432;2024-03-22T08:01:04;27.55;;;15.35;;
74551;SDS011;63025;55.472;38.432;2024-03-22T08:03:31;26.98;;;15.63;;
74551;SDS011;63025;55.472;38.432;2024-03-22T08:05:56;22.77;;;14.90;;
74551;SDS011;63025;55.472;38.432;2024-03-22T08:08:22;27.23;;;15.32;;
74551;SDS011;63025;55.472;38.432;2024-03-22T08:10:48;30.98;;;14.80;;
74551;SDS011;63025;55.472;38.432;2024-03-22T08:13:14;28.70;;;15.38;;
74551;SDS011;63025;55.472;38.432;2024-03-22T08:15:40;27.88;;;14.25;;
74551;SDS011;63025;55.472;38.432;2024-03-22T08:18:06;23.00;;;14.13;;
74551;SDS011;63025;55.472;38.432;2024-03-22T08:20:32;22.40;;;13.93;;
74551;SDS011;63025;55.472;38.432;2024-03-22T08:23:00;22.75;;;15.00;;
74551;SDS011;63025;55.472;38.432;2024-03-22T08:25:26;22.35;;;13.57;;
74551;SDS011;63025;55.472;38.432;2024-03-22T08:27:52;23.15;;;14.60;;
74551;SDS011;63025;55.472;38.432;2024-03-22T08:30:21;26.48;;;13.30;;
74551;SDS011;63025;55.472;38.432;2024-03-22T08:32:47;21.10;;;13.13;;
74551;SDS011;63025;55.472;38.432;2024-03-22T08:35:13;27.00;;;13.93;;
74551;SDS011;63025;55.472;38.432;2024-03-22T08:37:39;23.88;;;14.60;;
74551;SDS011;63025;55.472;38.432;2024-03-22T08:40:05;22.25;;;12.95;;
74551;SDS011;63025;55.472;38.432;2024-03-22T08:42:32;23.38;;;14.10;;
74551;SDS011;63025;55.472;38.432;2024-03-22T08:44:58;23.23;;;14.38;;
74551;SDS011;63025;55.472;38.432;2024-03-22T08:47:24;19.25;;;13.55;;
74551;SDS011;63025;55.472;38.432;2024-03-22T08:49:51;23.52;;;13.65;;
74551;SDS011;63025;55.472;38.432;2024-03-22T08:52:17;24.75;;;14.65;;
74551;SDS011;63025;55.472;38.432;2024-03-22T08:54:42;22.05;;;14.65;;
74551;SDS011;63025;55.472;38.432;2024-03-22T08:57:08;22.80;;;14.13;;
74551;SDS011;63025;55.472;38.432;2024-03-22T08:59:34;20.30;;;13.90;;
74551;SDS011;63025;55.472;38.432;2024-03-22T09:02:00;20.20;;;12.98;;
74551;SDS011;63025;55.472;38.432;2024-03-22T09:04:26;20.92;;;14.02;;
74551;SDS011;63025;55.472;38.432;2024-03-22T09:06:52;23.42;;;14.63;;
74551;SDS011;63025;55.472;38.432;2024-03-22T09:09:18;21.48;;;13.77;;
74551;SDS011;63025;55.472;38.432;2024-03-22T09:11:47;19.90;;;13.35;;
74551;SDS011;63025;55.472;38.432;2024-03-22T09:14:13;24.55;;;14.38;;
74551;SDS011;63025;55.472;38.432;2024-03-22T09:16:39;23.27;;;14.25;;
74551;SDS011;63025;55.472;38.432;2024-03-22T09:19:06;22.65;;;14.73;;
74551;SDS011;63025;55.472;38.432;2024-03-22T09:21:32;24.95;;;14.50;;
74551;SDS011;63025;55.472;38.432;2024-03-22T09:23:58;20.98;;;14.20;;
74551;SDS011;63025;55.472;38.432;2024-03-22T09:26:23;28.85;;;15.13;;
74551;SDS011;63025;55.472;38.432;2024-03-22T09:28:49;21.25;;;14.40;;
74551;SDS011;63025;55.472;38.432;2024-03-22T09:31:18;18.88;;;14.27;;
74551;SDS011;63025;55.472;38.432;2024-03-22T09:33:44;22.98;;;13.55;;
74551;SDS011;63025;55.472;38.432;2024-03-22T09:36:10;25.90;;;14.30;;
74551;SDS011;63025;55.472;38.432;2024-03-22T09:38:36;19.20;;;13.57;;
74551;SDS011;63025;55.472;38.432;2024-03-22T09:41:03;21.38;;;13.18;;
74551;SDS011;63025;55.472;38.432;2024-03-22T09:43:29;19.45;;;13.10;;
74551;SDS011;63025;55.472;38.432;2024-03-22T09:45:57;21.42;;;13.63;;
74551;SDS011;63025;55.472;38.432;2024-03-22T09:48:24;21.23;;;13.30;;
74551;SDS011;63025;55.472;38.432;2024-03-22T09:50:51;19.98;;;13.88;;
74551;SDS011;63025;55.472;38.432;2024-03-22T09:53:21;24.45;;;14.57;;
74551;SDS011;63025;55.472;38.432;2024-03-22T09:55:51;18.27;;;13.93;;
74551;SDS011;63025;55.472;38.432;2024-03-22T09:58:23;19.25;;;13.45;;
74551;SDS011;63025;55.472;38.432;2024-03-22T10:00:50;20.33;;;13.52;;
74551;SDS011;63025;55.472;38.432;2024-03-22T10:03:17;20.08;;;12.80;;
74551;SDS011;63025;55.472;38.432;2024-03-22T10:05:42;16.73;;;12.90;;
74551;SDS011;63025;55.472;38.432;2024-03-22T10:08:09;21.92;;;12.82;;
74551;SDS011;63025;55.472;38.432;2024-03-22T10:10:34;18.60;;;12.02;;
74551;SDS011;63025;55.472;38.432;2024-03-22T10:13:01;16.52;;;11.98;;
74551;SDS011;63025;55.472;38.432;2024-03-22T10:15:29;19.10;;;12.55;;
74551;SDS011;63025;55.472;38.432;2024-03-22T10:17:58;20.25;;;12.73;;
74551;SDS011;63025;55.472;38.432;2024-03-22T10:20:24;18.83;;;13.15;;
74551;SDS011;63025;55.472;38.432;2024-03-22T10:22:57;20.60;;;13.10;;
74551;SDS011;63025;55.472;38.432;2024-03-22T10:25:25;18.70;;;13.10;;
74551;SDS011;63025;55.472;38.432;2024-03-22T10:27:53;21.42;;;13.23;;
74551;SDS011;63025;55.472;38.432;2024-03-22T10:30:19;19.45;;;12.90;;
74551;SDS011;63025;55.472;38.432;2024-03-22T10:32:45;17.30;;;12.82;;
74551;SDS011;63025;55.472;38.432;2024-03-22T10:35:13;19.15;;;12.55;;
74551;SDS011;63025;55.472;38.432;2024-03-22T10:37:40;18.92;;;12.38;;
74551;SDS011;63025;55.472;38.432;2024-03-22T10:40:06;21.02;;;12.85;;
74551;SDS011;63025;55.472;38.432;2024-03-22T10:42:34;19.88;;;13.57;;
74551;SDS011;63025;55.472;38.432;2024-03-22T10:45:01;20.02;;;13.27;;
74551;SDS011;63025;55.472;38.432;2024-03-22T10:47:31;19.48;;;13.10;;
74551;SDS011;63025;55.472;38.432;2024-03-22T10:52:42;20.13;;;13.13;;
74551;SDS011;63025;55.472;38.432;2024-03-22T10:55:14;21.67;;;13.27;;
74551;SDS011;63025;55.472;38.432;2024-03-22T10:57:48;19.55;;;12.77;;
74551;SDS011;63025;55.472;38.432;2024-03-22T11:00:14;20.45;;;12.50;;
74551;SDS011;63025;55.472;38.432;2024-03-22T11:02:45;16.65;;;12.80;;
74551;SDS011;63025;55.472;38.432;2024-03-22T11:05:17;19.17;;;12.85;;
74551;SDS011;63025;55.472;38.432;2024-03-22T11:07:46;18.50;;;12.63;;
74551;SDS011;63025;55.472;38.432;2024-03-22T11:10:12;18.70;;;12.95;;
74551;SDS011;63025;55.472;38.432;2024-03-22T11:12:41;19.67;;;12.95;;
74551;SDS011;63025;55.472;38.432;2024-03-22T11:15:08;17.00;;;12.82;;
74551;SDS011;63025;55.472;38.432;2024-03-22T11:17:36;19.20;;;13.20;;
74551;SDS011;63025;55.472;38.432;2024-03-22T11:20:02;19.00;;;13.00;;
74551;SDS011;63025;55.472;38.432;2024-03-22T11:22:29;19.42;;;12.73;;
74551;SDS011;63025;55.472;38.432;2024-03-22T11:24:55;18.63;;;13.18;;
74551;SDS011;63025;55.472;38.432;2024-03-22T11:27:21;16.58;;;12.60;;
74551;SDS011;63025;55.472;38.432;2024-03-22T11:29:46;20.52;;;13.85;;
74551;SDS011;63025;55.472;38.432;2024-03-22T11:32:13;19.17;;;13.73;;
74551;SDS011;63025;55.472;38.432;2024-03-22T11:34:40;20.08;;;14.18;;
74551;SDS011;63025;55.472;38.432;2024-03-22T11:37:07;17.10;;;12.75;;
74551;SDS011;63025;55.472;38.432;2024-03-22T11:39:39;16.90;;;12.85;;
74551;SDS011;63025;55.472;38.432;2024-03-22T11:42:05;19.48;;;13.50;;
74551;SDS011;63025;55.472;38.432;2024-03-22T11:44:33;24.33;;;13.77;;
74551;SDS011;63025;55.472;38.432;2024-03-22T11:47:04;18.85;;;13.02;;
74551;SDS011;63025;55.472;38.432;2024-03-22T11:49:30;21.35;;;13.02;;
74551;SDS011;63025;55.472;38.432;2024-03-22T11:51:56;16.80;;;11.82;;
74551;SDS011;63025;55.472;38.432;2024-03-22T11:54:22;16.70;;;12.00;;
74551;SDS011;63025;55.472;38.432;2024-03-22T11:56:51;21.15;;;12.45;;
74551;SDS011;63025;55.472;38.432;2024-03-22T11:59:20;19.08;;;11.98;;
74551;SDS011;63025;55.472;38.432;2024-03-22T12:01:46;19.92;;;11.95;;
74551;SDS011;63025;55.472;38.432;2024-03-22T12:04:13;18.70;;;11.95;;
74551;SDS011;63025;55.472;38.432;2024-03-22T12:06:45;17.38;;;11.45;;
74551;SDS011;63025;55.472;38.432;2024-03-22T12:09:11;14.90;;;10.55;;
74551;SDS011;63025;55.472;38.432;2024-03-22T12:11:39;19.92;;;12.10;;
74551;SDS011;63025;55.472;38.432;2024-03-22T12:14:06;17.58;;;11.30;;
74551;SDS011;63025;55.472;38.432;2024-03-22T12:16:31;19.45;;;11.57;;
74551;SDS011;63025;55.472;38.432;2024-03-22T12:18:58;17.60;;;11.30;;
74551;SDS011;63025;55.472;38.432;2024-03-22T12:21:24;21.90;;;11.52;;
74551;SDS011;63025;55.472;38.432;2024-03-22T12:23:50;17.95;;;11.63;;
74551;SDS011;63025;55.472;38.432;2024-03-22T12:26:16;18.10;;;10.68;;
74551;SDS011;63025;55.472;38.432;2024-03-22T12:28:43;18.02;;;10.57;;
74551;SDS011;63025;55.472;38.432;2024-03-22T12:31:09;15.30;;;10.38;;
74551;SDS011;63025;55.472;38.432;2024-03-22T12:33:37;17.25;;;10.45;;
74551;SDS011;63025;55.472;38.432;2024-03-22T12:36:03;18.92;;;10.32;;
74551;SDS011;63025;55.472;38.432;2024-03-22T12:38:29;14.98;;;10.02;;
74551;SDS011;63025;55.472;38.432;2024-03-22T12:40:56;17.13;;;9.73;;
74551;SDS011;63025;55.472;38.432;2024-03-22T12:43:22;17.05;;;9.00;;
74551;SDS011;63025;55.472;38.432;2024-03-22T12:45:48;14.82;;;9.52;;
74551;SDS011;63025;55.472;38.432;2024-03-22T12:48:14;15.60;;;8.82;;
74551;SDS011;63025;55.472;38.432;2024-03-22T12:50:40;14.65;;;9.00;;
74551;SDS011;63025;55.472;38.432;2024-03-22T12:53:05;15.55;;;8.40;;
74551;SDS011;63025;55.472;38.432;2024-03-22T12:55:31;13.23;;;8.93;;
74551;SDS011;63025;55.472;38.432;2024-03-22T12:57:58;19.88;;;9.43;;
74551;SDS011;63025;55.472;38.432;2024-03-22T13:00:24;15.70;;;9.43;;
74551;SDS011;63025;55.472;38.432;2024-03-22T13:03:05;14.13;;;9.13;;
74551;SDS011;63025;55.472;38.432;2024-03-22T13:05:31;14.23;;;9.02;;
74551;SDS011;63025;55.472;38.432;2024-03-22T13:07:57;16.85;;;8.40;;
74551;SDS011;63025;55.472;38.432;2024-03-22T13:10:23;12.05;;;8.00;;
74551;SDS011;63025;55.472;38.432;2024-03-22T13:12:49;15.65;;;8.35;;
74551;SDS011;63025;55.472;38.432;2024-03-22T13:15:15;13.63;;;8.70;;
74551;SDS011;63025;55.472;38.432;2024-03-22T13:17:41;16.05;;;8.18;;
74551;SDS011;63025;55.472;38.432;2024-03-22T13:20:07;15.38;;;7.82;;
74551;SDS011;63025;55.472;38.432;2024-03-22T13:22:37;15.60;;;8.27;;
74551;SDS011;63025;55.472;38.432;2024-03-22T13:25:03;14.20;;;7.72;;
74551;SDS011;63025;55.472;38.432;2024-03-22T13:27:33;13.68;;;7.32;;
74551;SDS011;63025;55.472;38.432;2024-03-22T13:30:02;12.30;;;7.38;;
74551;SDS011;63025;55.472;38.432;2024-03-22T13:32:29;12.60;;;7.88;;
74551;SDS011;63025;55.472;38.432;2024-03-22T13:34:56;14.07;;;7.55;;
74551;SDS011;63025;55.472;38.432;2024-03-22T13:37:22;13.13;;;6.95;;
74551;SDS011;63025;55.472;38.432;2024-03-22T13:39:48;11.27;;;6.82;;
74551;SDS011;63025;55.472;38.432;2024-03-22T13:42:15;11.68;;;7.15;;
74551;SDS011;63025;55.472;38.432;2024-03-22T13:44:41;12.07;;;6.63;;
74551;SDS011;63025;55.472;38.432;2024-03-22T13:47:08;11.35;;;7.05;;
74551;SDS011;63025;55.472;38.432;2024-03-22T13:49:34;13.55;;;6.65;;
74551;SDS011;63025;55.472;38.432;2024-03-22T13:52:00;11.82;;;6.72;;
74551;SDS011;63025;55.472;38.432;2024-03-22T13:54:26;11.20;;;7.18;;
74551;SDS011;63025;55.472;38.432;2024-03-22T13:56:52;10.07;;;6.72;;
74551;SDS011;63025;55.472;38.432;2024-03-22T13:59:18;11.50;;;6.80;;
74551;SDS011;63025;55.472;38.432;2024-03-22T14:01:44;13.68;;;7.40;;
74551;SDS011;63025;55.472;38.432;2024-03-22T14:04:12;10.70;;;7.18;;
74551;SDS011;63025;55.472;38.432;2024-03-22T14:06:40;14.27;;;7.30;;
74551;SDS011;63025;55.472;38.432;2024-03-22T14:09:07;14.60;;;7.40;;
74551;SDS011;63025;55.472;38.432;2024-03-22T14:11:36;14.27;;;7.72;;